Time;durP1;ratioP1;P1;durP2;ratioP2;P2;SDS_P1;SDS_P2;PMS_P1;PMS_P2;Temp;Humidity;BMP_temperature;BMP_pressure;BME280_temperature;BME280_humidity;BME280_pressure;Samples;Min_cycle;Max_cycle;Signal;HPM_P1;HPM_P2
2023/01/04 00:01:08;;;;;;;15.98;9.02;;;14.30;59.20;;;;;;4975470;28;20076;-80
2023/01/04 00:03:34;;;;;;;13.75;8.43;;;14.40;58.90;;;;;;4976373;28;20093;-80
2023/01/04 00:06:02;;;;;;;18.77;9.07;;;14.30;58.90;;;;;;4976578;28;20054;-82
2023/01/04 00:08:29;;;;;;;13.73;8.40;;;14.00;59.70;;;;;;4991772;28;20027;-82
2023/01/04 00:11:16;;;;;;;17.65;9.40;;;13.90;59.70;;;;;;4991971;28;20605;-81
2023/01/04 00:13:42;;;;;;;14.70;9.35;;;13.70;59.90;;;;;;4976071;28;20564;-83
2023/01/04 00:16:12;;;;;;;15.82;8.43;;;13.70;60.30;;;;;;4976599;28;20023;-83
2023/01/04 00:18:38;;;;;;;15.77;8.68;;;13.70;59.80;;;;;;4976026;28;20023;-83
2023/01/04 00:21:10;;;;;;;13.65;8.20;;;13.80;59.90;;;;;;4990654;28;20027;-84
2023/01/04 00:23:37;;;;;;;14.05;7.88;;;13.70;59.90;;;;;;4976673;28;20359;-80
2023/01/04 00:26:18;;;;;;;11.93;7.53;;;13.60;60.00;;;;;;4991201;28;20026;-80
2023/01/04 00:28:44;;;;;;;;;;;13.60;60.00;;;;;;4976514;28;20027;-80
2023/01/04 00:31:11;;;;;;;13.55;7.53;;;13.50;60.00;;;;;;4975643;28;20005;-81
2023/01/04 00:33:37;;;;;;;13.85;7.50;;;13.60;59.60;;;;;;4990732;28;20029;-81
2023/01/04 00:36:08;;;;;;;12.15;6.95;;;13.50;59.60;;;;;;4976309;28;20105;-83
2023/01/04 00:38:34;;;;;;;13.27;8.10;;;13.40;60.00;;;;;;4990619;28;20065;-81
2023/01/04 00:41:01;;;;;;;14.52;7.63;;;13.40;60.20;;;;;;4974282;28;20051;-79
2023/01/04 00:43:27;;;;;;;16.20;7.85;;;13.60;59.70;;;;;;4976304;28;20034;-81
2023/01/04 00:45:53;;;;;;;11.57;7.13;;;13.30;59.90;;;;;;4974853;28;20429;-85
2023/01/04 00:48:19;;;;;;;13.07;7.47;;;13.30;59.70;;;;;;4974688;28;20023;-80
2023/01/04 00:50:46;;;;;;;13.73;8.40;;;13.30;59.80;;;;;;4974504;28;20041;-81
2023/01/04 00:53:13;;;;;;;14.25;8.02;;;13.30;60.00;;;;;;4975496;28;20051;-80
2023/01/04 00:55:39;;;;;;;13.13;8.27;;;13.30;60.20;;;;;;4990816;28;20035;-80
2023/01/04 00:58:05;;;;;;;12.30;7.30;;;13.30;60.00;;;;;;4990609;28;20018;-80
2023/01/04 01:00:32;;;;;;;13.13;7.57;;;13.40;59.60;;;;;;4989771;28;20106;-80
2023/01/04 01:02:57;;;;;;;13.88;7.93;;;13.40;59.90;;;;;;4975362;28;20097;-81
2023/01/04 01:05:23;;;;;;;12.82;8.00;;;13.60;59.30;;;;;;4975386;28;20113;-83
2023/01/04 01:07:49;;;;;;;13.40;7.68;;;13.70;59.20;;;;;;4974892;28;20030;-80
2023/01/04 01:10:14;;;;;;;13.32;8.32;;;13.60;59.40;;;;;;4975699;28;20035;-83
2023/01/04 01:12:40;;;;;;;13.30;7.53;;;13.70;59.20;;;;;;4973989;28;20476;-83
2023/01/04 01:15:06;;;;;;;13.98;7.82;;;13.90;58.50;;;;;;4990556;28;20027;-80
2023/01/04 01:17:33;;;;;;;12.15;7.55;;;13.80;58.50;;;;;;4974788;28;20034;-83
2023/01/04 01:19:59;;;;;;;13.30;7.45;;;13.60;58.90;;;;;;4989799;28;20031;-79
2023/01/04 01:22:24;;;;;;;13.38;8.25;;;13.60;59.10;;;;;;4974921;28;20030;-82
2023/01/04 01:24:50;;;;;;;12.93;7.63;;;13.70;58.50;;;;;;4973865;28;20478;-81
2023/01/04 01:27:16;;;;;;;13.68;8.30;;;13.50;58.70;;;;;;4990140;28;20474;-79
2023/01/04 01:29:42;;;;;;;11.43;6.93;;;13.30;59.60;;;;;;4973418;28;20045;-80
2023/01/04 01:32:08;;;;;;;11.85;7.47;;;13.50;58.90;;;;;;4989518;28;20031;-82
2023/01/04 01:34:33;;;;;;;12.98;8.13;;;13.30;59.10;;;;;;4973771;28;20119;-80
2023/01/04 01:36:59;;;;;;;12.25;7.07;;;13.20;59.60;;;;;;4973276;28;20033;-82
2023/01/04 01:39:25;;;;;;;12.40;7.60;;;13.00;59.60;;;;;;4989629;28;20027;-81
2023/01/04 01:41:50;;;;;;;12.57;7.78;;;13.20;59.50;;;;;;4974923;28;20081;-82
2023/01/04 01:44:41;;;;;;;13.40;7.10;;;13.50;59.10;;;;;;4974725;28;20019;-80
2023/01/04 01:47:17;;;;;;;;;;;13.50;59.10;;;;;;4973996;28;20027;-79
2023/01/04 01:49:46;;;;;;;14.00;7.18;;;13.40;58.90;;;;;;4989468;28;19914;-80
2023/01/04 01:52:17;;;;;;;12.95;7.40;;;13.50;59.20;;;;;;4989393;28;20054;-81
2023/01/04 01:54:46;;;;;;;12.05;7.57;;;13.60;58.50;;;;;;4974802;28;20018;-78
2023/01/04 01:57:16;;;;;;;11.25;7.13;;;13.80;58.00;;;;;;4974994;28;20493;-81
2023/01/04 01:59:44;;;;;;;13.50;7.82;;;13.70;58.10;;;;;;4974121;28;20019;-80
2023/01/04 02:02:11;;;;;;;13.00;7.75;;;13.50;58.70;;;;;;4989234;28;20047;-80
2023/01/04 02:04:40;;;;;;;13.57;7.45;;;13.60;58.20;;;;;;4973079;28;20114;-80
2023/01/04 02:07:06;;;;;;;13.52;7.45;;;13.80;58.10;;;;;;4989742;28;20127;-79
2023/01/04 02:09:33;;;;;;;12.82;7.75;;;13.70;57.80;;;;;;4989558;28;20363;-81
2023/01/04 02:11:58;;;;;;;15.35;8.23;;;13.70;58.20;;;;;;4973262;28;20070;-82
2023/01/04 02:14:28;;;;;;;11.82;7.18;;;13.60;58.30;;;;;;4974192;28;20034;-81
2023/01/04 02:17:00;;;;;;;13.00;7.63;;;13.70;57.90;;;;;;4989211;28;20114;-81
2023/01/04 02:20:09;;;;;;;11.27;7.15;;;13.80;57.50;;;;;;4974136;28;20482;-81
2023/01/04 02:22:56;;;;;;;12.75;7.13;;;13.80;57.50;;;;;;4957173;28;20038;-80
2023/01/04 02:25:31;;;;;;;14.20;8.10;;;13.60;57.60;;;;;;4972642;28;20482;-82
2023/01/04 02:28:15;;;;;;;13.07;8.02;;;13.80;57.70;;;;;;4973297;28;20034;-81
2023/01/04 02:30:44;;;;;;;14.50;7.72;;;14.00;56.90;;;;;;4989326;28;20441;-81
2023/01/04 02:33:15;;;;;;;14.45;7.40;;;14.10;56.80;;;;;;4972718;28;20516;-79
2023/01/04 02:36:05;;;;;;;11.65;7.05;;;14.10;56.50;;;;;;4972926;28;20038;-81
2023/01/04 02:38:38;;;;;;;12.82;7.30;;;14.10;56.70;;;;;;4974227;28;20385;-80
2023/01/04 02:41:11;;;;;;;12.32;6.80;;;14.00;57.00;;;;;;4974075;28;20026;-80
2023/01/04 02:46:39;;;;;;;14.07;7.32;;;13.50;58.00;;;;;;4974343;28;20057;-80
2023/01/04 02:51:49;;;;;;;11.65;7.07;;;13.10;58.50;;;;;;4973950;28;20041;-80
2023/01/04 02:54:26;;;;;;;12.90;6.97;;;13.10;58.50;;;;;;4989060;28;20039;-79
2023/01/04 02:57:11;;;;;;;12.63;6.93;;;13.20;58.20;;;;;;4972908;28;20501;-80
2023/01/04 03:00:19;;;;;;;10.88;6.75;;;13.30;58.30;;;;;;4972792;28;20046;-80
2023/01/04 03:06:15;;;;;;;12.23;7.85;;;13.20;58.00;;;;;;4977921;28;20536;-80
2023/01/04 03:09:15;;;;;;;12.00;7.35;;;13.00;58.50;;;;;;4976300;28;20031;-81
2023/01/04 03:14:45;;;;;;;13.60;7.38;;;12.60;59.20;;;;;;4977679;28;20078;-79
2023/01/04 03:17:13;;;;;;;11.60;6.82;;;12.50;59.50;;;;;;4976242;28;20409;-82
2023/01/04 03:19:50;;;;;;;10.38;6.57;;;12.40;59.40;;;;;;4976376;28;20027;-81
2023/01/04 03:36:34;;;;;;;10.88;6.28;;;12.30;59.80;;;;;;4958190;28;20034;-81
2023/01/04 03:51:16;;;;;;;13.50;7.50;;;12.10;60.10;;;;;;4957758;29;20629;-79
2023/01/04 03:54:02;;;;;;;12.18;6.53;;;12.20;59.90;;;;;;4956452;29;20062;-79
2023/01/04 03:56:29;;;;;;;11.60;6.22;;;12.20;59.70;;;;;;4972836;28;20028;-80
2023/01/04 03:58:56;;;;;;;11.60;6.63;;;12.50;59.40;;;;;;4972801;28;20035;-82
2023/01/04 04:01:24;;;;;;;11.60;6.68;;;12.60;59.20;;;;;;4957534;29;20038;-79
2023/01/04 04:09:19;;;;;;;14.32;7.28;;;12.10;59.70;;;;;;4957152;29;20122;-79
2023/01/04 04:11:44;;;;;;;12.00;7.15;;;11.90;60.10;;;;;;4955578;28;20106;-81
2023/01/04 04:14:10;;;;;;;12.00;6.78;;;11.80;60.50;;;;;;4971517;28;20055;-79
2023/01/04 04:16:36;;;;;;;10.40;6.85;;;11.70;61.60;;;;;;4955739;29;20035;-81
2023/01/04 04:19:02;;;;;;;11.45;6.55;;;11.90;60.40;;;;;;4956604;28;20031;-80
2023/01/04 04:21:27;;;;;;;12.50;6.78;;;11.90;60.50;;;;;;4956295;28;20034;-81
2023/01/04 04:23:56;;;;;;;13.95;7.60;;;11.90;60.60;;;;;;4955348;29;20024;-81
2023/01/04 04:26:23;;;;;;;13.50;6.93;;;11.50;60.90;;;;;;4955689;29;20039;-80
2023/01/04 04:28:49;;;;;;;12.27;7.47;;;11.30;61.80;;;;;;4971498;28;20387;-80
2023/01/04 04:31:14;;;;;;;12.07;6.50;;;11.50;61.20;;;;;;4971409;28;20490;-80
2023/01/04 04:33:40;;;;;;;11.15;6.82;;;11.60;61.10;;;;;;4956669;28;20038;-82
2023/01/04 04:36:07;;;;;;;13.65;7.00;;;12.00;60.20;;;;;;4956831;29;20039;-80
2023/01/04 04:38:34;;;;;;;11.38;6.65;;;12.00;59.80;;;;;;4955402;29;20027;-77
2023/01/04 04:43:48;;;;;;;12.18;6.82;;;11.70;60.90;;;;;;4957142;29;20037;-81
2023/01/04 04:46:14;;;;;;;11.45;6.55;;;11.70;60.90;;;;;;4971009;28;20031;-78
2023/01/04 04:48:40;;;;;;;11.38;6.60;;;11.80;60.50;;;;;;4954842;29;20039;-79
2023/01/04 04:51:05;;;;;;;10.27;6.50;;;11.80;60.10;;;;;;4955207;28;20039;-82
2023/01/04 04:53:31;;;;;;;11.27;7.18;;;11.80;60.20;;;;;;4970818;28;20047;-81
2023/01/04 04:55:57;;;;;;;9.93;6.47;;;11.80;60.00;;;;;;4955602;29;20038;-80
2023/01/04 04:58:23;;;;;;;11.02;6.80;;;11.60;60.70;;;;;;4970610;28;20031;-79
2023/01/04 05:00:48;;;;;;;13.98;7.13;;;11.60;60.70;;;;;;4954865;28;20494;-81
2023/01/04 05:03:15;;;;;;;12.98;7.68;;;11.70;60.00;;;;;;4970250;28;20493;-80
2023/01/04 05:05:41;;;;;;;13.68;7.60;;;11.80;60.40;;;;;;4956145;28;20390;-80
2023/01/04 05:08:08;;;;;;;15.23;7.93;;;11.70;60.50;;;;;;4954643;29;20047;-80
2023/01/04 05:10:33;;;;;;;33.53;15.73;;;11.80;60.10;;;;;;4970456;28;20043;-81
2023/01/04 05:12:59;;;;;;;21.08;10.50;;;11.90;59.70;;;;;;4954162;28;20489;-80
2023/01/04 05:15:37;;;;;;;22.55;11.07;;;12.20;59.50;;;;;;4970420;28;20031;-80
2023/01/04 05:18:04;;;;;;;14.95;9.07;;;12.10;59.30;;;;;;4970606;28;20372;-80
2023/01/04 05:20:29;;;;;;;13.82;7.95;;;12.00;59.20;;;;;;4955521;28;20027;-80
2023/01/04 05:22:55;;;;;;;14.75;8.32;;;12.00;59.50;;;;;;4954738;28;20027;-83
2023/01/04 05:25:25;;;;;;;14.20;7.82;;;12.00;59.60;;;;;;4969846;28;20031;-81
2023/01/04 05:27:51;;;;;;;12.95;8.40;;;12.10;59.10;;;;;;4971059;28;20069;-81
2023/01/04 05:33:03;;;;;;;14.10;8.18;;;11.50;60.10;;;;;;4955717;28;20042;-79
2023/01/04 05:35:29;;;;;;;20.02;9.88;;;11.40;60.70;;;;;;4955523;28;20031;-81
2023/01/04 05:37:55;;;;;;;12.68;7.95;;;11.50;60.10;;;;;;4954340;29;20034;-78
2023/01/04 05:40:21;;;;;;;15.05;8.75;;;11.50;60.40;;;;;;4970237;28;20035;-79
2023/01/04 05:42:47;;;;;;;15.70;8.35;;;11.20;60.80;;;;;;4954353;29;20027;-79
2023/01/04 05:45:14;;;;;;;16.63;9.35;;;11.00;61.10;;;;;;4971007;28;20051;-81
2023/01/04 05:47:39;;;;;;;15.02;8.80;;;11.00;61.80;;;;;;4955734;28;20030;-82
2023/01/04 05:50:06;;;;;;;16.65;8.68;;;11.00;61.30;;;;;;4955639;28;20391;-81
2023/01/04 05:52:32;;;;;;;17.98;9.90;;;11.20;61.00;;;;;;4955256;28;20086;-80
2023/01/04 05:54:58;;;;;;;16.33;10.15;;;11.30;60.50;;;;;;4955620;28;20038;-82
2023/01/04 05:57:24;;;;;;;17.63;9.68;;;11.20;60.60;;;;;;4955492;29;20035;-81
2023/01/04 05:59:49;;;;;;;18.75;10.07;;;11.20;60.10;;;;;;4954871;29;20027;-81
2023/01/04 06:02:18;;;;;;;18.02;9.98;;;11.10;60.70;;;;;;4955007;28;20035;-81
2023/01/04 06:04:44;;;;;;;16.50;9.75;;;11.00;60.40;;;;;;4970197;28;20031;-81
2023/01/04 06:07:09;;;;;;;18.63;9.90;;;11.00;60.80;;;;;;4954028;29;20031;-79
2023/01/04 06:09:35;;;;;;;16.67;9.30;;;11.00;60.60;;;;;;4953648;29;20058;-79
2023/01/04 06:12:01;;;;;;;16.77;10.00;;;10.80;61.40;;;;;;4954804;28;20575;-79
2023/01/04 06:14:26;;;;;;;20.27;12.35;;;10.90;61.20;;;;;;4970010;28;20043;-81
2023/01/04 06:16:52;;;;;;;20.02;10.15;;;11.00;60.70;;;;;;4953997;29;20465;-80
2023/01/04 06:19:17;;;;;;;23.83;12.35;;;10.90;60.90;;;;;;4969969;28;20038;-81
2023/01/04 06:21:43;;;;;;;24.15;12.90;;;10.70;61.00;;;;;;4969828;28;20026;-79
2023/01/04 06:24:12;;;;;;;21.42;12.38;;;10.60;61.80;;;;;;4970245;28;20035;-80
2023/01/04 06:26:38;;;;;;;22.05;11.90;;;10.60;61.70;;;;;;4956213;29;20382;-82
2023/01/04 06:29:03;;;;;;;27.15;13.48;;;10.60;62.00;;;;;;4970465;28;20497;-80
2023/01/04 06:31:29;;;;;;;24.10;13.60;;;10.80;61.00;;;;;;4955190;28;20035;-80
2023/01/04 06:33:55;;;;;;;25.48;13.75;;;10.50;61.70;;;;;;4969397;28;20031;-80
2023/01/04 06:36:21;;;;;;;26.23;13.73;;;10.50;61.70;;;;;;4954959;28;20027;-81
2023/01/04 06:38:47;;;;;;;29.58;14.68;;;10.50;61.80;;;;;;4958085;28;20703;-83
2023/01/04 06:41:13;;;;;;;31.05;15.43;;;10.60;62.00;;;;;;4958806;28;20051;-83
2023/01/04 06:43:39;;;;;;;30.88;16.02;;;10.70;61.50;;;;;;4973622;28;20035;-83
2023/01/04 06:46:04;;;;;;;29.55;15.35;;;10.70;61.80;;;;;;4973528;28;20023;-80
2023/01/04 06:48:30;;;;;;;28.80;15.77;;;10.80;61.70;;;;;;4958314;29;20027;-81
2023/01/04 06:50:56;;;;;;;29.42;15.77;;;10.90;61.10;;;;;;4973196;28;20031;-80
2023/01/04 06:53:21;;;;;;;32.47;16.45;;;10.80;61.60;;;;;;4958097;28;20055;-79
2023/01/04 06:55:47;;;;;;;38.92;19.33;;;10.70;61.80;;;;;;4973240;28;20028;-78
2023/01/04 06:58:12;;;;;;;30.30;17.00;;;10.70;62.10;;;;;;4973042;28;20070;-78
2023/01/04 07:00:38;;;;;;;33.72;16.75;;;10.70;62.50;;;;;;4957635;28;20043;-77
2023/01/04 07:03:04;;;;;;;30.77;16.02;;;10.60;62.40;;;;;;4957232;29;20023;-80
2023/01/04 07:05:29;;;;;;;29.13;15.07;;;10.50;62.50;;;;;;4972931;28;20463;-80
2023/01/04 07:07:58;;;;;;;30.70;16.85;;;10.40;62.40;;;;;;4958124;28;20372;-78
2023/01/04 07:10:23;;;;;;;29.75;16.88;;;10.40;63.30;;;;;;4956946;29;20039;-79
2023/01/04 07:12:49;;;;;;;71.65;36.40;;;10.50;62.40;;;;;;4958124;28;20038;-78
2023/01/04 07:15:14;;;;;;;40.28;22.20;;;10.60;62.40;;;;;;4957825;28;20031;-81
2023/01/04 07:17:40;;;;;;;41.72;22.58;;;10.80;62.00;;;;;;4972645;28;20067;-79
2023/01/04 07:20:06;;;;;;;32.58;19.48;;;11.10;61.20;;;;;;4957876;29;20054;-80
2023/01/04 07:22:32;;;;;;;28.00;15.25;;;11.30;60.30;;;;;;4980087;28;20101;-79
2023/01/04 07:24:57;;;;;;;27.58;16.67;;;11.20;60.80;;;;;;4975394;28;20474;-78
2023/01/04 07:27:23;;;;;;;26.83;15.48;;;11.00;60.80;;;;;;4975468;28;20023;-79
2023/01/04 07:29:48;;;;;;;28.23;16.92;;;10.60;62.00;;;;;;4976580;28;20046;-78
2023/01/04 07:32:15;;;;;;;37.03;19.08;;;10.60;62.40;;;;;;4976940;28;20488;-79
2023/01/04 07:34:42;;;;;;;34.72;19.15;;;10.70;62.20;;;;;;4975588;28;20129;-79
2023/01/04 07:37:08;;;;;;;38.33;19.00;;;10.90;62.30;;;;;;4976877;28;20023;-78
2023/01/04 07:39:34;;;;;;;31.13;17.42;;;11.00;61.80;;;;;;4975630;28;20023;-78
2023/01/04 07:42:00;;;;;;;33.40;18.30;;;11.20;61.20;;;;;;4976718;28;20062;-77
2023/01/04 07:44:27;;;;;;;33.17;18.10;;;11.30;60.80;;;;;;4976391;28;20055;-77
2023/01/04 07:46:53;;;;;;;35.13;19.23;;;11.40;60.70;;;;;;4990543;28;20451;-79
2023/01/04 07:49:19;;;;;;;35.72;18.67;;;11.50;60.60;;;;;;4991114;28;20035;-81
2023/01/04 07:51:47;;;;;;;30.30;16.27;;;11.60;60.30;;;;;;4976249;28;20198;-78
2023/01/04 07:54:14;;;;;;;30.55;15.40;;;11.60;60.10;;;;;;4976413;28;20101;-78
2023/01/04 07:56:39;;;;;;;29.92;16.50;;;11.70;59.70;;;;;;4976414;28;20031;-78
2023/01/04 07:59:07;;;;;;;27.98;16.15;;;11.80;59.90;;;;;;4974871;28;20398;-79
2023/01/04 08:01:37;;;;;;;28.63;16.25;;;11.90;59.40;;;;;;4975214;28;20112;-78
2023/01/04 08:04:04;;;;;;;;;;;11.70;59.80;;;;;;4975246;28;20538;-79
2023/01/04 08:06:29;;;;;;;30.42;17.85;;;11.60;59.90;;;;;;4976066;28;19913;-79
2023/01/04 08:08:55;;;;;;;32.72;17.63;;;11.70;60.20;;;;;;4974767;28;20030;-77
2023/01/04 08:11:23;;;;;;;26.05;14.88;;;11.60;59.20;;;;;;4976035;28;20042;-77
2023/01/04 08:13:50;;;;;;;34.22;18.33;;;11.40;60.00;;;;;;4974510;28;20023;-76
2023/01/04 08:16:22;;;;;;;28.55;16.02;;;11.50;60.60;;;;;;4975638;28;20069;-77
2023/01/04 08:18:52;;;;;;;35.85;19.45;;;11.70;59.50;;;;;;4975733;28;20505;-78
2023/01/04 08:21:18;;;;;;;33.65;18.42;;;11.60;60.10;;;;;;4976102;28;20030;-77
2023/01/04 08:23:45;;;;;;;38.33;20.23;;;11.60;59.90;;;;;;4975988;28;20026;-79
2023/01/04 08:26:13;;;;;;;33.33;18.83;;;11.60;60.50;;;;;;4975863;28;20018;-78
2023/01/04 08:28:39;;;;;;;34.20;19.20;;;11.80;59.80;;;;;;4975430;28;20038;-79
2023/01/04 08:31:11;;;;;;;38.45;19.85;;;11.80;60.50;;;;;;4974473;28;20573;-78
2023/01/04 08:33:38;;;;;;;39.83;20.50;;;12.10;59.60;;;;;;4974515;28;20184;-78
2023/01/04 08:36:24;;;;;;;36.75;20.25;;;12.20;59.20;;;;;;4975672;28;20105;-80
2023/01/04 08:38:52;;;;;;;33.75;19.60;;;12.50;58.20;;;;;;4974804;28;20394;-80
2023/01/04 08:41:18;;;;;;;34.58;19.88;;;12.60;58.10;;;;;;4975731;28;20429;-78
2023/01/04 08:43:44;;;;;;;31.58;17.75;;;12.50;57.40;;;;;;4975790;28;20058;-78
2023/01/04 08:46:11;;;;;;;25.58;16.45;;;12.30;58.80;;;;;;4975975;28;20114;-80
2023/01/04 08:48:37;;;;;;;29.50;17.77;;;12.00;59.00;;;;;;4975640;28;20374;-80
2023/01/04 08:51:06;;;;;;;27.23;16.90;;;12.00;60.00;;;;;;4974207;28;20394;-81
2023/01/04 08:53:31;;;;;;;22.52;13.70;;;12.70;59.20;;;;;;4974678;28;20058;-78
2023/01/04 08:55:59;;;;;;;21.10;14.00;;;14.20;56.60;;;;;;4973915;28;20031;-79
2023/01/04 08:58:26;;;;;;;26.10;15.88;;;15.60;54.00;;;;;;4974336;28;20109;-80
2023/01/04 09:00:52;;;;;;;19.98;12.13;;;16.80;52.20;;;;;;4974478;28;20030;-80
2023/01/04 09:03:18;;;;;;;22.10;14.43;;;17.70;50.60;;;;;;4973968;28;20034;-80
2023/01/04 09:05:44;;;;;;;22.25;13.65;;;18.50;49.70;;;;;;4973969;28;20026;-78
2023/01/04 09:08:10;;;;;;;21.80;13.30;;;19.10;48.70;;;;;;4973664;28;20038;-79
2023/01/04 09:10:39;;;;;;;21.48;13.88;;;20.10;47.50;;;;;;4973439;28;20035;-79
2023/01/04 09:13:05;;;;;;;24.83;16.30;;;21.20;46.80;;;;;;4973930;28;20022;-79
2023/01/04 09:15:32;;;;;;;20.50;14.05;;;22.50;45.10;;;;;;4973065;28;20146;-80
2023/01/04 09:17:57;;;;;;;27.35;18.17;;;23.70;44.00;;;;;;4976161;28;20027;-79
2023/01/04 09:20:23;;;;;;;25.58;17.92;;;24.40;42.60;;;;;;4974667;28;20037;-79
2023/01/04 09:22:49;;;;;;;23.02;15.50;;;24.70;42.60;;;;;;4972883;28;20386;-79
2023/01/04 09:25:15;;;;;;;23.52;15.52;;;25.40;41.90;;;;;;4972930;28;20018;-79
2023/01/04 09:27:40;;;;;;;26.23;17.83;;;25.30;41.30;;;;;;4972641;28;20048;-79
2023/01/04 09:30:07;;;;;;;23.05;14.77;;;25.00;41.50;;;;;;4973074;28;20039;-80
2023/01/04 09:32:32;;;;;;;23.20;15.45;;;25.30;41.50;;;;;;4974052;28;20098;-79
2023/01/04 09:34:58;;;;;;;21.42;13.90;;;25.70;41.10;;;;;;4972694;28;20033;-79
2023/01/04 09:37:24;;;;;;;21.73;13.18;;;26.10;41.10;;;;;;4972512;28;20085;-80
2023/01/04 09:39:49;;;;;;;20.90;13.35;;;26.10;40.80;;;;;;4974038;28;20103;-84
2023/01/04 09:42:38;;;;;;;18.95;13.70;;;26.10;41.00;;;;;;4972579;28;20031;-82
2023/01/04 09:45:16;;;;;;;20.17;13.00;;;26.40;40.70;;;;;;4974243;28;20041;-80
2023/01/04 09:48:08;;;;;;;21.90;14.82;;;26.10;40.80;;;;;;4974495;28;20023;-80
2023/01/04 09:51:11;;;;;;;18.23;12.05;;;26.00;40.60;;;;;;4973674;28;20097;-79
2023/01/04 09:54:00;;;;;;;20.30;13.07;;;25.50;40.70;;;;;;4957072;28;20046;-81
2023/01/04 09:56:30;;;;;;;20.95;13.73;;;25.10;41.00;;;;;;4974374;28;20034;-80
2023/01/04 09:58:58;;;;;;;24.05;13.20;;;24.50;41.80;;;;;;4974224;28;20023;-79
2023/01/04 10:01:40;;;;;;;19.10;13.65;;;24.60;41.60;;;;;;4973577;28;20497;-82
2023/01/04 10:04:22;;;;;;;20.48;13.73;;;24.80;42.10;;;;;;4972967;28;20030;-84
2023/01/04 10:06:49;;;;;;;20.40;13.90;;;25.90;41.50;;;;;;4973367;28;20023;-79
2023/01/04 10:09:15;;;;;;;22.83;14.55;;;26.50;40.60;;;;;;4972968;28;20488;-81
2023/01/04 10:12:05;;;;;;;24.65;15.32;;;26.50;41.00;;;;;;4975083;28;20401;-81
2023/01/04 10:15:24;;;;;;;22.48;14.07;;;26.80;41.10;;;;;;4980710;28;20027;-80
2023/01/04 10:17:52;;;;;;;20.45;14.35;;;27.40;40.70;;;;;;4902294;29;20396;-79
2023/01/04 10:20:41;;;;;;;23.42;15.38;;;27.90;40.40;;;;;;4902358;29;20037;-79
2023/01/04 10:23:35;;;;;;;22.75;14.95;;;28.00;40.10;;;;;;4902005;29;20495;-82
2023/01/04 10:26:10;;;;;;;20.90;12.63;;;27.10;40.30;;;;;;4900933;29;20033;-80
2023/01/04 10:29:25;;;;;;;21.70;14.20;;;26.00;40.40;;;;;;4901878;29;20131;-79
2023/01/04 10:32:08;;;;;;;18.67;13.25;;;24.90;41.50;;;;;;4845698;29;20129;-80
2023/01/04 10:34:42;;;;;;;18.13;13.13;;;24.80;41.70;;;;;;4845218;29;20029;-80
2023/01/04 10:37:32;;;;;;;22.65;14.50;;;24.50;41.80;;;;;;4830068;29;20045;-79
2023/01/04 10:39:58;;;;;;;18.50;13.27;;;24.10;42.80;;;;;;4846093;29;20034;-80
2023/01/04 10:42:31;;;;;;;20.02;13.65;;;23.90;42.50;;;;;;4845687;29;20034;-79
2023/01/04 10:45:17;;;;;;;23.05;16.20;;;23.90;42.50;;;;;;4845079;29;20069;-80
2023/01/04 10:48:11;;;;;;;21.23;13.68;;;23.50;43.30;;;;;;4830771;29;20041;-80
2023/01/04 10:51:06;;;;;;;23.00;14.07;;;22.40;43.90;;;;;;4853314;29;20113;-79
2023/01/04 10:53:45;;;;;;;18.48;13.40;;;21.30;45.10;;;;;;4889827;29;20152;-78
2023/01/04 10:56:32;;;;;;;23.30;14.50;;;20.40;46.20;;;;;;4886141;29;20523;-77
2023/01/04 10:59:26;;;;;;;24.23;16.95;;;18.80;48.40;;;;;;4901857;29;20161;-78
2023/01/04 11:02:09;;;;;;;30.58;18.52;;;18.00;49.60;;;;;;4902358;29;20517;-79
2023/01/04 11:04:55;;;;;;;35.53;20.13;;;17.90;49.90;;;;;;4902126;29;20032;-80
2023/01/04 11:07:24;;;;;;;24.52;16.42;;;17.40;51.00;;;;;;4901863;29;20095;-81
2023/01/04 11:09:49;;;;;;;24.90;15.73;;;17.40;51.90;;;;;;4961264;28;20126;-83
2023/01/04 11:12:20;;;;;;;28.77;17.90;;;17.70;50.90;;;;;;4961416;28;20098;-81
2023/01/04 11:14:47;;;;;;;25.05;16.70;;;17.80;50.50;;;;;;4959642;29;20027;-81
2023/01/04 11:17:13;;;;;;;27.75;17.17;;;18.00;50.70;;;;;;4959766;28;20031;-79
2023/01/04 11:19:40;;;;;;;28.20;17.50;;;18.20;50.60;;;;;;4959281;28;20042;-79
2023/01/04 11:22:26;;;;;;;27.02;17.88;;;18.30;50.20;;;;;;4959503;28;20028;-78
2023/01/04 11:25:00;;;;;;;26.55;18.23;;;18.60;49.90;;;;;;4955229;28;20170;-81
2023/01/04 11:27:30;;;;;;;27.60;17.73;;;17.80;50.40;;;;;;4957481;28;20030;-79
2023/01/04 11:30:08;;;;;;;29.15;19.25;;;17.00;52.10;;;;;;4957653;28;20474;-82
2023/01/04 11:32:50;;;;;;;25.30;16.38;;;16.40;53.10;;;;;;4951857;29;20509;-78
2023/01/04 11:35:40;;;;;;;26.73;17.63;;;16.00;53.90;;;;;;4956200;28;20039;-81
2023/01/04 11:38:15;;;;;;;27.40;18.45;;;15.20;54.80;;;;;;4957426;28;20136;-79
2023/01/04 11:40:41;;;;;;;31.75;19.73;;;14.50;57.40;;;;;;4956359;28;20023;-80
2023/01/04 11:43:19;;;;;;;27.73;17.42;;;13.90;58.10;;;;;;4956273;28;20435;-83
2023/01/04 11:45:55;;;;;;;29.20;18.88;;;13.90;59.20;;;;;;4957302;28;20416;-81
2023/01/04 11:48:31;;;;;;;30.52;18.67;;;14.10;58.90;;;;;;4955921;28;20114;-78
2023/01/04 11:50:57;;;;;;;30.95;18.55;;;14.00;58.80;;;;;;4955977;28;20035;-79
2023/01/04 11:53:35;;;;;;;32.72;19.92;;;13.90;59.80;;;;;;4957283;29;20047;-80
2023/01/04 11:56:28;;;;;;;35.60;20.52;;;14.30;59.10;;;;;;4287015;28;10000710;-79
2023/01/04 11:59:15;;;;;;;33.45;20.58;;;14.70;58.20;;;;;;4989600;28;20031;-82
2023/01/04 12:01:44;;;;;;;31.70;19.67;;;14.90;57.10;;;;;;4973471;28;20035;-83
2023/01/04 12:04:15;;;;;;;36.15;21.05;;;14.90;58.20;;;;;;4974777;28;20501;-80
2023/01/04 12:06:44;;;;;;;37.30;20.75;;;15.10;57.80;;;;;;4974587;28;20026;-79
2023/01/04 12:09:15;;;;;;;42.65;26.50;;;15.50;57.20;;;;;;4973571;28;20053;-82
2023/01/04 12:11:45;;;;;;;36.85;21.60;;;15.50;56.80;;;;;;4974693;28;20051;-83
2023/01/04 12:14:33;;;;;;;62.53;43.60;;;15.40;57.40;;;;;;4975793;28;20027;-83
2023/01/04 12:17:28;;;;;;;35.58;21.73;;;15.50;57.20;;;;;;4975465;28;20081;-82
2023/01/04 12:19:55;;;;;;;35.25;21.85;;;15.60;57.40;;;;;;4989159;28;20038;-80
2023/01/04 12:22:37;;;;;;;40.95;21.70;;;15.80;57.10;;;;;;4975161;28;20023;-79
2023/01/04 12:25:19;;;;;;;63.65;47.80;;;16.00;56.70;;;;;;4974783;28;20038;-80
2023/01/04 12:27:49;;;;;;;289.33;189.48;;;15.80;56.60;;;;;;4974845;28;20551;-80
2023/01/04 12:30:50;;;;;;;349.80;314.15;;;15.90;57.00;;;;;;4975467;28;20066;-81
2023/01/04 12:33:31;;;;;;;35.70;22.80;;;16.00;56.90;;;;;;4897996;29;20492;-86
2023/01/04 12:36:11;;;;;;;49.40;30.55;;;16.00;56.90;;;;;;4881234;29;20419;-83
2023/01/04 12:39:01;;;;;;;52.85;39.35;;;16.20;56.60;;;;;;4897636;29;20119;-83
2023/01/04 12:41:33;;;;;;;43.85;26.55;;;16.20;56.60;;;;;;4882256;29;20033;-79
2023/01/04 12:44:00;;;;;;;53.63;36.17;;;16.10;56.90;;;;;;4881863;29;20508;-82
2023/01/04 12:49:26;;;;;;;259.77;230.48;;;15.70;57.60;;;;;;4897431;29;20071;-81
2023/01/04 12:52:07;;;;;;;68.93;50.25;;;15.70;57.80;;;;;;4897353;29;20113;-82
2023/01/04 12:54:44;;;;;;;;;;;15.90;57.50;;;;;;4882212;29;20048;-84
2023/01/04 12:57:16;;;;;;;43.10;27.60;;;15.90;57.80;;;;;;4881916;29;19953;-80
2023/01/04 13:00:03;;;;;;;58.78;36.28;;;16.00;57.40;;;;;;4897506;29;20060;-81
2023/01/04 13:02:30;;;;;;;62.55;41.75;;;15.90;57.30;;;;;;4897543;29;20025;-81
2023/01/04 13:05:23;;;;;;;88.88;77.55;;;16.00;57.50;;;;;;4897200;29;20067;-81
2023/01/04 13:07:52;;;;;;;42.90;26.15;;;16.20;57.40;;;;;;4954593;28;20045;-88
2023/01/04 13:10:40;;;;;;;39.28;24.92;;;16.40;56.80;;;;;;4975737;28;20102;-87
2023/01/04 13:13:41;;;;;;;40.55;26.27;;;16.60;56.10;;;;;;4974365;28;20030;-81
2023/01/04 13:16:32;;;;;;;61.13;42.88;;;16.80;56.40;;;;;;4971489;28;20069;-84
2023/01/04 13:19:00;;;;;;;36.47;22.90;;;17.00;55.90;;;;;;4975085;28;20434;-83
2023/01/04 13:21:40;;;;;;;38.33;24.40;;;16.80;56.00;;;;;;4975554;28;20545;-82
2023/01/04 13:24:19;;;;;;;38.67;24.00;;;16.80;56.10;;;;;;4973869;28;20027;-84
2023/01/04 13:26:47;;;;;;;38.53;23.88;;;16.70;56.10;;;;;;4975352;28;20023;-81
2023/01/04 13:29:28;;;;;;;38.55;23.55;;;16.40;56.40;;;;;;4975545;28;20545;-84
2023/01/04 13:32:08;;;;;;;100.60;73.63;;;16.10;56.90;;;;;;4974009;28;20042;-81
2023/01/04 13:34:51;;;;;;;76.28;52.85;;;16.20;57.40;;;;;;4973320;28;20434;-81
2023/01/04 13:37:35;;;;;;;328.17;180.93;;;16.40;57.20;;;;;;4974126;28;20041;-85
2023/01/04 13:40:00;;;;;;;108.70;56.30;;;16.60;56.60;;;;;;4975170;28;20512;-84
2023/01/04 13:42:32;;;;;;;108.93;59.17;;;16.60;56.20;;;;;;4974858;28;20019;-85
2023/01/04 13:45:09;;;;;;;154.07;87.20;;;16.60;56.60;;;;;;4974956;28;20033;-79